Alcolu, SC

6:33 PM EDT on September 21, 2014 (GMT -0400)
Santee Cooper Regional | Change Station
CLOSE
Current Station
Airport
Location: Manning,
Elevation: 105 ft
Nearby Weather Stations

Elev 105 ft 33.59 °N, 80.21 °W | Updated 18 minutes ago

Clear
Clear
84 °F
Feels Like 87 °F
N
4
Wind Variable Wind from SSW

Today
High -- | Low -- °F
--% Chance of Precip.
Yesterday
High -- | Low -- °F
Precip. -- in
7:08 AM 7:18 PM
Waning Crescent, 5% visible
Pressure 29.88 in
Visibility 10.0 miles
Clouds Clear
Heat Index 87 °F
Dew Point 66 °F
Humidity 55%
Rainfall 0.00 in
Snow Depth Not available.
UV 1 out of 12
Pollen 8.40 out of 12
Air Quality Not available.
Flu Activity Not available.
METAR KMNI 212215Z AUTO 21003KT 10SM CLR 29/19 A2988 RMK AO2

More Conditions Fewer Conditions

Pressure 29.88 in
Visibility 10.0 miles
Clouds Clear
Heat Index 87 °F
Dew Point 66 °F
Humidity 55%
Rainfall 0.00 in
Snow Depth Not available.
UV 1 out of 12
Pollen 8.40 out of 12
Air Quality Not available.
Flu Activity Not available.
METAR KMNI 212215Z AUTO 21003KT 10SM CLR 29/19 A2988 RMK AO2

More Conditions Fewer Conditions

10-Day Weather Forecast

Almanac

Astronomy

Sep. 21, 2014 Rise Set
Actual Time 7:08 AM EDT 7:18 PM EDT
Civil Twilight 6:43 AM EDT 7:43 PM EDT
Nautical Twilight 6:14 AM EDT 8:12 PM EDT
Astronomical Twilight 5:44 AM EDT 8:42 PM EDT
Moon 4:45 AM EDT 5:50 PM EDT
Length of Visible Light 13h 00m
Length of Day
12h 10m
Tomorrow will be 2m 4s shorter.
Waning Crescent, 5% of the Moon is Illuminated
Today
Waning Crescent
Sep 24
New
Oct 1
First Quarter
Oct 8
Full
Oct 15
Last Quarter

Today's Extremes

State Highs State Lows

Community

WunderPhotos

Upload Photos

1,755,280 photos uploaded!

WunderBlogs® & News

Nearby

Snow Depth

Station Depth Elevation
No new snow has been reported.

Earthquake Activity

City Distance Mag. Time & Date
New Ellenton, South Carolina 91 miles 2.6 4:38 PM EDT
2014-09-19
Minimum magnitude displayed is 2.5.

Coastal Water Temperatures

Place Temperature
No Stations Reporting

Nearby Weather Stations